Leaman Place, Pennsylvania
Current Conditions -  °F | °C
As of 5:55 PM on Wednesday 26 Nov 2014 (Local Time) from KMQS Reporting Station
Light Snow Light Snow  
Wind Chill: 23°   Ceiling: 100
Heat Index: 32°   Visibility: 1.7mi
Dew Point: 32°   Wind: 12mph
Humidity: 100%   Direction: 330°NNW
Pressure: 29.9"   Gusts: NA
Location:  39.9757°N, 76.0913°W
Report Text: KMQS 262255Z AUTO 33010KT 1 3/4SM -SN BKN001 OVC009 00/00 A2990 RMK AO2 P0001
Loading
Personal Weather Stations






























Interactive Weather Map New forecast layout! Learn more

10-Day Weather Forecast

Advertisements
Track Severe Weather on mobile